Atlantic Beach, Florida
Current Conditions -  °F | °C
As of 5:52 PM on Saturday 22 Nov 2014 (Local Time) from KNRB Reporting Station
Overcast Overcast  
Wind Chill: 68°   Ceiling: 3600
Heat Index: 68°   Visibility: 10mi
Dew Point: 61°   Wind: 13mph
Humidity: 78%   Direction: 100°E
Pressure: 30.21"   Gusts: NA
Location:  30.33°N, 81.4°W
Report Text: KNRB 222252Z AUTO 10011KT 10SM BKN036 BKN044 OVC050 20/16 A3021 RMK AO2 SLP229 T02000161 $
Loading
Personal Weather Stations






























Interactive Weather Map New forecast layout! Learn more

10-Day Weather Forecast

Advertisements
Track Severe Weather on mobile